createdAt,value
2018-12-10T00:00:39.779Z,100495
2018-12-10T00:03:14.819Z,100495
2018-12-10T00:05:43.660Z,100497
2018-12-10T00:08:12.488Z,100501
2018-12-10T00:10:42.066Z,100499
2018-12-10T00:13:10.898Z,100494
2018-12-10T00:15:39.748Z,100499
2018-12-10T00:18:09.190Z,100503
2018-12-10T00:20:38.035Z,100509
2018-12-10T00:23:06.871Z,100510
2018-12-10T00:25:35.709Z,100512
2018-12-10T00:28:04.549Z,100516
2018-12-10T00:30:33.395Z,100519
2018-12-10T00:33:02.245Z,100512
2018-12-10T00:35:31.084Z,100525
2018-12-10T00:37:59.932Z,100518
2018-12-10T00:40:28.772Z,100529
2018-12-10T00:42:58.350Z,100524
2018-12-10T00:45:27.191Z,100539
2018-12-10T00:47:56.024Z,100536
2018-12-10T00:50:24.859Z,100551
2018-12-10T00:52:53.702Z,100550
2018-12-10T00:55:22.575Z,100552
2018-12-10T00:57:51.370Z,100561
2018-12-10T01:00:20.203Z,100565
2018-12-10T01:02:49.048Z,100579
2018-12-10T01:05:17.876Z,100592
2018-12-10T01:07:47.467Z,100579
2018-12-10T01:10:16.309Z,100572
2018-12-10T01:12:45.159Z,100587
2018-12-10T01:15:14.014Z,100593
2018-12-10T01:17:42.842Z,100594
2018-12-10T01:20:11.725Z,100599
2018-12-10T01:22:40.536Z,100596
2018-12-10T01:25:09.366Z,100610
2018-12-10T01:27:38.207Z,100617
2018-12-10T01:30:07.792Z,100620
2018-12-10T01:32:36.643Z,100622
2018-12-10T01:35:05.475Z,100630
2018-12-10T01:37:34.316Z,100626
2018-12-10T01:40:03.145Z,100638
2018-12-10T01:42:32.576Z,100644
2018-12-10T01:45:01.420Z,100640
2018-12-10T01:47:30.274Z,100637
2018-12-10T01:49:59.116Z,100629
2018-12-10T01:52:27.955Z,100631
2018-12-10T01:54:56.801Z,100634
2018-12-10T01:57:25.648Z,100640
2018-12-10T01:59:54.487Z,100645
2018-12-10T02:02:23.338Z,100644
2018-12-10T02:04:52.158Z,100650
2018-12-10T02:07:21.738Z,100649
2018-12-10T02:09:50.567Z,100655
2018-12-10T02:12:20.142Z,100640
2018-12-10T02:14:48.982Z,100635
2018-12-10T02:17:17.833Z,100640
2018-12-10T02:19:47.417Z,100649
2018-12-10T02:22:16.255Z,100646
2018-12-10T02:24:45.088Z,100650
2018-12-10T02:27:13.923Z,100651
2018-12-10T02:29:43.530Z,100659
2018-12-10T02:32:12.331Z,100671
2018-12-10T02:34:41.161Z,100666
2018-12-10T02:37:10.007Z,100673
2018-12-10T02:39:38.920Z,100681
2018-12-10T02:42:07.684Z,100690
2018-12-10T02:44:36.532Z,100693
2018-12-10T02:47:06.109Z,100695
2018-12-10T02:49:34.963Z,100695
2018-12-10T02:52:03.814Z,100703
2018-12-10T02:54:32.661Z,100716
2018-12-10T02:57:01.494Z,100692
2018-12-10T02:59:30.924Z,100703
2018-12-10T03:01:59.759Z,100701
2018-12-10T03:04:28.597Z,100697
2018-12-10T03:06:57.430Z,100707
2018-12-10T03:09:26.265Z,100722
2018-12-10T03:11:55.116Z,100722
2018-12-10T03:14:23.958Z,100721
2018-12-10T03:16:53.579Z,100716
2018-12-10T03:19:22.388Z,100726
2018-12-10T03:21:51.225Z,100730
2018-12-10T03:24:20.106Z,100720
2018-12-10T03:26:48.907Z,100733
2018-12-10T03:29:18.483Z,100736
2018-12-10T03:31:47.320Z,100743
2018-12-10T03:34:16.180Z,100744
2018-12-10T03:36:45.033Z,100742
2018-12-10T03:39:13.874Z,100749
2018-12-10T03:41:42.702Z,100753
2018-12-10T03:44:11.546Z,100755
2018-12-10T03:46:40.390Z,100751
2018-12-10T03:49:09.290Z,100746
2018-12-10T03:51:38.058Z,100754
2018-12-10T03:54:06.898Z,100759
2018-12-10T03:56:35.737Z,100753
2018-12-10T03:59:04.576Z,100752
2018-12-10T04:01:33.410Z,100750
2018-12-10T04:04:02.245Z,100754
2018-12-10T04:06:31.086Z,100762
2018-12-10T04:08:59.924Z,100771
2018-12-10T04:11:29.508Z,100759
2018-12-10T04:13:58.343Z,100767
2018-12-10T04:16:27.920Z,100772
2018-12-10T04:18:56.758Z,100763
2018-12-10T04:21:25.588Z,100765
2018-12-10T04:23:54.450Z,100766
2018-12-10T04:26:23.307Z,100767
2018-12-10T04:28:52.875Z,100772
2018-12-10T04:31:21.720Z,100775
2018-12-10T04:33:50.567Z,100772
2018-12-10T04:36:19.406Z,100777
2018-12-10T04:38:48.237Z,100786
2018-12-10T04:41:17.063Z,100786
2018-12-10T04:43:46.646Z,100787
2018-12-10T04:46:15.489Z,100788
2018-12-10T04:48:44.340Z,100784
2018-12-10T04:51:13.959Z,100790
2018-12-10T04:53:42.786Z,100806
2018-12-10T04:56:11.623Z,100798
2018-12-10T04:58:40.462Z,100808
2018-12-10T05:01:09.300Z,100808
2018-12-10T05:03:38.148Z,100808
2018-12-10T05:06:06.994Z,100807
2018-12-10T05:08:35.825Z,100829
2018-12-10T05:11:04.656Z,100828
2018-12-10T05:13:34.237Z,100835
2018-12-10T05:16:03.673Z,100852
2018-12-10T05:18:32.512Z,100846
2018-12-10T05:21:01.341Z,100852
2018-12-10T05:23:30.182Z,100849
2018-12-10T05:25:59.015Z,100853
2018-12-10T05:28:28.601Z,100849
2018-12-10T05:30:57.437Z,100848
2018-12-10T05:33:26.278Z,100851
2018-12-10T05:35:55.110Z,100852
2018-12-10T05:38:23.969Z,100855
2018-12-10T05:40:52.816Z,100856
2018-12-10T05:43:21.661Z,100860
2018-12-10T05:45:51.238Z,100869
2018-12-10T05:48:20.092Z,100879
2018-12-10T05:50:49.826Z,100863
2018-12-10T05:53:18.167Z,100874
2018-12-10T05:55:47.006Z,100869
2018-12-10T05:58:17.666Z,100870
2018-12-10T06:00:44.671Z,100887
2018-12-10T06:03:13.516Z,100890
2018-12-10T06:05:42.353Z,100892
2018-12-10T06:08:11.187Z,100899
2018-12-10T06:10:40.771Z,100904
2018-12-10T06:13:09.639Z,100901
2018-12-10T06:15:38.459Z,100921
2018-12-10T06:18:08.035Z,100914
2018-12-10T06:20:36.879Z,100930
2018-12-10T06:23:05.724Z,100921
2018-12-10T06:25:34.555Z,100926
2018-12-10T06:28:03.408Z,100922
2018-12-10T06:30:32.276Z,100922
2018-12-10T06:33:01.135Z,100923
2018-12-10T06:35:30.686Z,100921
2018-12-10T06:37:59.521Z,100920
2018-12-10T06:40:28.371Z,100926
2018-12-10T06:42:57.245Z,100926
2018-12-10T06:45:26.081Z,100933
2018-12-10T06:47:54.920Z,100939
2018-12-10T06:50:23.759Z,100939
2018-12-10T06:52:52.605Z,100934
2018-12-10T06:55:21.437Z,100935
2018-12-10T06:57:50.283Z,100947
2018-12-10T07:00:19.113Z,100944
2018-12-10T07:02:47.955Z,100948
2018-12-10T07:05:16.785Z,100952
2018-12-10T07:07:45.723Z,100953
2018-12-10T07:10:14.819Z,100953
2018-12-10T07:12:43.660Z,100954
2018-12-10T07:15:13.246Z,100957
2018-12-10T07:17:42.087Z,100956
2018-12-10T07:20:10.929Z,100964
2018-12-10T07:22:40.539Z,100963
2018-12-10T07:25:10.120Z,100965
2018-12-10T07:27:38.950Z,100964
2018-12-10T07:30:07.789Z,100964
2018-12-10T07:32:36.624Z,100966
2018-12-10T07:35:06.259Z,100971
2018-12-10T07:37:35.050Z,100981
2018-12-10T07:40:03.903Z,100978
2018-12-10T07:42:33.479Z,100985
2018-12-10T07:45:02.365Z,100977
2018-12-10T07:47:31.226Z,100985
2018-12-10T07:50:00.793Z,100978
2018-12-10T07:52:29.637Z,100985
2018-12-10T07:54:58.465Z,100991
2018-12-10T07:57:27.320Z,100983
2018-12-10T07:59:56.168Z,100985
2018-12-10T08:02:25.008Z,100986
2018-12-10T08:04:53.848Z,100995
2018-12-10T08:07:22.718Z,101001
2018-12-10T08:09:51.559Z,101010
2018-12-10T08:12:20.366Z,100995
2018-12-10T08:14:49.197Z,101001
2018-12-10T08:17:18.060Z,101004
2018-12-10T08:19:47.777Z,100998
2018-12-10T08:22:16.534Z,100995
2018-12-10T08:24:45.369Z,101005
2018-12-10T08:27:14.209Z,101008
2018-12-10T08:29:43.044Z,101017
2018-12-10T08:32:12.652Z,101019
2018-12-10T08:34:41.703Z,101014
2018-12-10T08:37:10.968Z,101026
2018-12-10T08:39:39.897Z,101017
2018-12-10T08:42:08.639Z,101012
2018-12-10T08:44:37.493Z,101030
2018-12-10T08:47:07.064Z,101022
2018-12-10T08:49:35.904Z,101027
2018-12-10T08:52:04.723Z,101028
2018-12-10T08:54:33.561Z,101040
2018-12-10T08:57:03.250Z,101039
2018-12-10T08:59:31.986Z,101031
2018-12-10T09:02:01.556Z,101040
2018-12-10T09:04:30.385Z,101047
2018-12-10T09:06:59.252Z,101039
2018-12-10T09:09:28.828Z,101038
2018-12-10T09:11:57.666Z,101038
2018-12-10T09:14:26.507Z,101057
2018-12-10T09:16:55.336Z,101041
2018-12-10T09:19:24.919Z,101047
2018-12-10T09:21:53.740Z,101041
2018-12-10T09:24:23.310Z,101050
2018-12-10T09:26:52.173Z,101063
2018-12-10T09:29:21.000Z,101063
2018-12-10T09:31:49.827Z,101061
2018-12-10T09:34:18.680Z,101073
2018-12-10T09:36:47.507Z,101068
2018-12-10T09:39:16.348Z,101075
2018-12-10T09:41:45.204Z,101067
2018-12-10T09:44:14.033Z,101075
2018-12-10T09:46:42.903Z,101077
2018-12-10T09:49:11.703Z,101084
2018-12-10T09:51:40.534Z,101084
2018-12-10T09:54:09.382Z,101087
2018-12-10T09:56:38.219Z,101093
2018-12-10T09:59:07.051Z,101090
2018-12-10T10:01:36.640Z,101085
2018-12-10T10:04:05.483Z,101086
2018-12-10T10:06:35.080Z,101090
2018-12-10T10:09:04.726Z,101096
2018-12-10T10:11:33.476Z,101094
2018-12-10T10:14:02.308Z,101087
2018-12-10T10:16:31.138Z,101090
2018-12-10T10:18:59.972Z,101088
2018-12-10T10:21:28.806Z,101091
2018-12-10T10:23:59.487Z,101092
2018-12-10T10:26:26.488Z,101093
2018-12-10T10:28:55.384Z,101103
2018-12-10T10:31:24.253Z,101090
2018-12-10T10:33:53.050Z,101096
2018-12-10T10:36:21.886Z,101088
2018-12-10T10:38:50.715Z,101089
2018-12-10T10:41:19.553Z,101085
2018-12-10T10:43:49.129Z,101073
2018-12-10T10:46:17.955Z,101075
2018-12-10T10:48:46.790Z,101084
2018-12-10T10:51:15.663Z,101082
2018-12-10T10:53:45.205Z,101088
2018-12-10T10:56:14.061Z,101085
2018-12-10T10:58:42.897Z,101085
2018-12-10T11:01:18.107Z,101077
2018-12-10T11:03:46.940Z,101073
2018-12-10T11:06:15.775Z,101093
2018-12-10T11:08:44.610Z,101093
2018-12-10T11:11:14.192Z,101083
2018-12-10T11:13:43.042Z,101093
2018-12-10T11:16:11.886Z,101081
2018-12-10T11:18:41.452Z,101085
2018-12-10T11:21:10.278Z,101077
2018-12-10T11:23:39.851Z,101081
2018-12-10T11:26:08.690Z,101080
2018-12-10T11:28:37.560Z,101069
2018-12-10T11:31:07.141Z,101064
2018-12-10T11:33:35.997Z,101051
2018-12-10T11:36:04.791Z,101060
2018-12-10T11:38:33.632Z,101051
2018-12-10T11:41:03.213Z,101047
2018-12-10T11:43:32.040Z,101041
2018-12-10T11:46:00.873Z,101042
2018-12-10T11:48:29.711Z,101041
2018-12-10T11:50:59.285Z,101038
2018-12-10T11:53:28.106Z,101042
2018-12-10T11:55:57.690Z,101031
2018-12-10T11:58:26.511Z,101021
2018-12-10T12:00:55.348Z,101025
2018-12-10T12:03:25.212Z,101022
2018-12-10T12:05:54.011Z,101022
2018-12-10T12:08:22.838Z,101024
2018-12-10T12:10:51.667Z,101012
2018-12-10T12:13:20.497Z,101021
2018-12-10T12:15:49.348Z,101023
2018-12-10T12:18:18.180Z,101028
2018-12-10T12:20:47.017Z,101021
2018-12-10T12:23:16.591Z,101032
2018-12-10T12:25:45.408Z,101023
2018-12-10T12:28:15.009Z,101021
2018-12-10T12:30:43.837Z,101018
2018-12-10T12:33:12.708Z,101015
2018-12-10T12:35:42.285Z,101015
2018-12-10T12:38:11.111Z,101015
2018-12-10T12:40:40.684Z,101007
2018-12-10T12:43:15.750Z,101001
2018-12-10T12:45:38.387Z,101005
2018-12-10T12:48:07.191Z,101005
2018-12-10T12:50:36.027Z,101001
2018-12-10T12:53:04.855Z,100998
2018-12-10T12:55:33.691Z,100997
2018-12-10T12:58:02.605Z,101002
2018-12-10T13:00:31.435Z,100999
2018-12-10T13:03:00.271Z,101001
2018-12-10T13:05:29.107Z,100990
2018-12-10T13:07:57.945Z,100996
2018-12-10T13:10:26.814Z,100991
2018-12-10T13:12:56.363Z,101004
2018-12-10T13:15:25.214Z,100977
2018-12-10T13:17:54.053Z,100993
2018-12-10T13:20:23.630Z,100987
2018-12-10T13:22:52.454Z,100980
2018-12-10T13:25:22.044Z,100973
2018-12-10T13:27:50.898Z,100982
2018-12-10T13:30:19.728Z,100986
2018-12-10T13:32:48.573Z,100984
2018-12-10T13:35:17.407Z,100982
2018-12-10T13:37:46.990Z,100972
2018-12-10T13:40:15.814Z,100970
2018-12-10T13:42:44.642Z,100965
2018-12-10T13:45:13.467Z,100962
2018-12-10T13:47:43.048Z,100968
2018-12-10T13:50:11.884Z,100969
2018-12-10T13:52:41.475Z,100969
2018-12-10T13:55:10.291Z,100964
2018-12-10T13:57:39.133Z,100961
2018-12-10T14:00:07.967Z,100966
2018-12-10T14:02:36.813Z,100969
2018-12-10T14:05:05.654Z,100981
2018-12-10T14:07:34.483Z,100979
2018-12-10T14:10:03.316Z,100975
2018-12-10T14:12:32.159Z,100981
2018-12-10T14:15:01.020Z,100976
2018-12-10T14:17:29.875Z,100976
2018-12-10T14:19:58.706Z,100977
2018-12-10T14:22:27.540Z,100972
2018-12-10T14:24:56.370Z,100969
2018-12-10T14:27:25.205Z,100969
2018-12-10T14:29:54.043Z,100971
2018-12-10T14:32:22.882Z,100971
2018-12-10T14:34:51.701Z,100958
2018-12-10T14:37:21.275Z,100962
2018-12-10T14:39:50.117Z,100973
2018-12-10T14:42:20.988Z,100970
2018-12-10T14:44:49.824Z,100974
2018-12-10T14:47:18.676Z,100965
2018-12-10T14:49:47.516Z,100979
2018-12-10T14:52:16.343Z,100973
2018-12-10T14:54:45.179Z,100979
2018-12-10T14:57:14.755Z,100981
2018-12-10T14:59:43.596Z,100980
2018-12-10T15:02:12.444Z,100974
2018-12-10T15:04:41.402Z,100977
2018-12-10T15:07:10.982Z,100976
2018-12-10T15:09:39.828Z,100972
2018-12-10T15:12:08.654Z,100975
2018-12-10T15:14:37.487Z,100975
2018-12-10T15:17:06.341Z,100969
2018-12-10T15:19:35.239Z,100976
2018-12-10T15:22:04.059Z,100970
2018-12-10T15:24:32.904Z,100979
2018-12-10T15:27:01.769Z,100976
2018-12-10T15:29:30.615Z,100974
2018-12-10T15:31:59.452Z,100972
2018-12-10T15:34:28.295Z,100978
2018-12-10T15:36:57.177Z,100973
2018-12-10T15:39:25.974Z,100976
2018-12-10T15:41:54.820Z,100972
2018-12-10T15:44:23.654Z,100964
2018-12-10T15:46:52.493Z,100959
2018-12-10T15:49:21.434Z,100971
2018-12-10T15:51:50.173Z,100960
2018-12-10T15:54:19.011Z,100963
2018-12-10T15:56:47.929Z,100963
2018-12-10T15:59:17.428Z,100968
2018-12-10T16:01:46.254Z,100973
2018-12-10T16:04:15.097Z,100975
2018-12-10T16:06:43.936Z,100968
2018-12-10T16:09:13.523Z,100972
2018-12-10T16:11:42.360Z,100977
2018-12-10T16:14:11.195Z,100973
2018-12-10T16:16:40.042Z,100966
2018-12-10T16:19:08.899Z,100968
2018-12-10T16:21:37.751Z,100970
2018-12-10T16:24:06.586Z,100979
2018-12-10T16:26:36.182Z,100972
2018-12-10T16:29:05.029Z,100977
2018-12-10T16:31:33.881Z,100974
2018-12-10T16:34:03.475Z,100976
2018-12-10T16:36:32.322Z,100979
2018-12-10T16:39:01.170Z,100977
2018-12-10T16:41:30.763Z,100978
2018-12-10T16:44:00.358Z,100978
2018-12-10T16:46:29.952Z,100979
2018-12-10T16:48:58.802Z,100976
2018-12-10T16:51:27.646Z,100979
2018-12-10T16:53:56.501Z,100967
2018-12-10T16:56:25.352Z,100971
2018-12-10T16:58:54.239Z,100970
2018-12-10T17:01:23.821Z,100976
2018-12-10T17:03:52.769Z,100974
2018-12-10T17:06:21.541Z,100985
2018-12-10T17:08:50.372Z,100986
2018-12-10T17:11:19.271Z,101001
2018-12-10T17:13:48.078Z,100995
2018-12-10T17:16:16.929Z,101006
2018-12-10T17:18:45.776Z,101006
2018-12-10T17:21:14.636Z,101053
2018-12-10T17:23:44.066Z,101066
2018-12-10T17:26:12.906Z,101070
2018-12-10T17:28:41.759Z,101076
2018-12-10T17:31:10.623Z,101071
2018-12-10T17:33:39.530Z,101078
2018-12-10T17:36:08.390Z,101081
2018-12-10T17:38:37.246Z,101087
2018-12-10T17:41:06.708Z,101094
2018-12-10T17:43:34.949Z,101084
2018-12-10T17:46:03.819Z,101079
2018-12-10T17:48:32.648Z,101099
2018-12-10T17:51:02.230Z,101080
2018-12-10T17:53:31.072Z,101075
2018-12-10T17:55:59.902Z,101081
2018-12-10T17:58:28.768Z,101092
2018-12-10T18:00:57.597Z,101087
2018-12-10T18:03:26.479Z,101080
2018-12-10T18:05:55.267Z,101087
2018-12-10T18:08:24.118Z,101084
2018-12-10T18:10:52.958Z,101083
2018-12-10T18:13:22.540Z,101081
2018-12-10T18:15:51.388Z,101088
2018-12-10T18:18:20.230Z,101084
2018-12-10T18:20:49.072Z,101090
2018-12-10T18:23:17.919Z,101083
2018-12-10T18:25:46.772Z,101086
2018-12-10T18:28:15.607Z,101086
2018-12-10T18:30:45.213Z,101083
2018-12-10T18:33:14.787Z,101086
2018-12-10T18:35:43.615Z,101092
2018-12-10T18:38:13.197Z,101076
2018-12-10T18:40:42.053Z,101076
2018-12-10T18:43:10.936Z,101086
2018-12-10T18:45:40.468Z,101102
2018-12-10T18:48:09.366Z,101116
2018-12-10T18:50:38.168Z,101117
2018-12-10T18:53:07.007Z,101146
2018-12-10T18:55:35.861Z,101119
2018-12-10T18:58:05.447Z,101112
2018-12-10T19:00:34.344Z,101113
2018-12-10T19:03:03.177Z,101112
2018-12-10T19:05:32.002Z,101113
2018-12-10T19:08:00.837Z,101099
2018-12-10T19:10:29.679Z,101104
2018-12-10T19:12:58.507Z,101110
2018-12-10T19:15:27.346Z,101106
2018-12-10T19:17:56.181Z,101104
2018-12-10T19:20:25.756Z,101100
2018-12-10T19:22:54.597Z,101100
2018-12-10T19:25:23.445Z,101108
2018-12-10T19:27:52.280Z,101106
2018-12-10T19:30:21.114Z,101110
2018-12-10T19:32:49.965Z,101116
2018-12-10T19:35:18.801Z,101121
2018-12-10T19:37:47.715Z,101125
2018-12-10T19:40:16.477Z,101119
2018-12-10T19:42:45.328Z,101131
2018-12-10T19:45:14.164Z,101131
2018-12-10T19:47:43.734Z,101133
2018-12-10T19:50:12.567Z,101140
2018-12-10T19:52:41.426Z,101137
2018-12-10T19:55:10.877Z,101133
2018-12-10T19:57:39.705Z,101138
2018-12-10T20:00:08.556Z,101134
2018-12-10T20:02:37.386Z,101132
2018-12-10T20:05:06.215Z,101140
2018-12-10T20:07:35.057Z,101139
2018-12-10T20:10:03.901Z,101138
2018-12-10T20:12:32.746Z,101140
2018-12-10T20:15:01.585Z,101145
2018-12-10T20:17:30.427Z,101144
2018-12-10T20:19:59.265Z,101160
2018-12-10T20:22:28.101Z,101137
2018-12-10T20:24:56.986Z,101145
2018-12-10T20:27:25.840Z,101143
2018-12-10T20:29:54.672Z,101139
2018-12-10T20:32:23.510Z,101147
2018-12-10T20:34:52.416Z,101142
2018-12-10T20:37:21.253Z,101145
2018-12-10T20:39:50.074Z,101151
2018-12-10T20:42:18.917Z,101146
2018-12-10T20:44:47.943Z,101151
2018-12-10T20:47:16.586Z,101152
2018-12-10T20:49:45.427Z,101152
2018-12-10T20:52:14.280Z,101151
2018-12-10T20:54:43.117Z,101151
2018-12-10T20:57:11.953Z,101147
2018-12-10T20:59:40.798Z,101145
2018-12-10T21:02:09.750Z,101152
2018-12-10T21:04:46.576Z,101148
2018-12-10T21:07:15.399Z,101146
2018-12-10T21:09:44.994Z,101153
2018-12-10T21:12:13.828Z,101157
2018-12-10T21:14:42.676Z,101159
2018-12-10T21:17:11.528Z,101166
2018-12-10T21:19:40.351Z,101167
2018-12-10T21:22:09.192Z,101158
2018-12-10T21:24:38.027Z,101162
2018-12-10T21:27:06.863Z,101159
2018-12-10T21:29:35.688Z,101162
2018-12-10T21:32:04.523Z,101156
2018-12-10T21:34:33.358Z,101158
2018-12-10T21:37:02.200Z,101164
2018-12-10T21:39:31.029Z,101165
2018-12-10T21:41:59.854Z,101163
2018-12-10T21:44:28.686Z,101153
2018-12-10T21:46:57.515Z,101155
2018-12-10T21:49:26.351Z,101162
2018-12-10T21:51:55.201Z,101159
2018-12-10T21:54:24.793Z,101147
2018-12-10T21:56:53.705Z,101157
2018-12-10T21:59:22.544Z,101152
2018-12-10T22:01:51.391Z,101154
2018-12-10T22:04:20.223Z,101155
2018-12-10T22:06:49.060Z,101157
2018-12-10T22:09:18.646Z,101153
2018-12-10T22:11:47.485Z,101147
2018-12-10T22:14:16.314Z,101144
2018-12-10T22:16:45.138Z,101142
2018-12-10T22:19:13.993Z,101123
2018-12-10T22:21:42.808Z,101147
2018-12-10T22:24:12.393Z,101148
2018-12-10T22:26:41.223Z,101145
2018-12-10T22:29:10.061Z,101143
2018-12-10T22:31:38.895Z,101136
2018-12-10T22:34:07.738Z,101149
2018-12-10T22:36:36.582Z,101141
2018-12-10T22:39:06.146Z,101147
2018-12-10T22:41:34.979Z,101182
2018-12-10T22:44:03.810Z,101147
2018-12-10T22:46:32.686Z,101153
2018-12-10T22:49:01.484Z,101151
2018-12-10T22:51:30.320Z,101150
2018-12-10T22:53:59.896Z,101156
2018-12-10T22:56:28.742Z,101153
2018-12-10T22:58:57.580Z,101155
2018-12-10T23:01:26.418Z,101151
2018-12-10T23:03:55.258Z,101154
2018-12-10T23:06:24.097Z,101162
2018-12-10T23:08:52.927Z,101161
2018-12-10T23:11:21.760Z,101154
2018-12-10T23:13:50.587Z,101155
2018-12-10T23:16:19.409Z,101149
2018-12-10T23:18:48.239Z,101137
2018-12-10T23:21:17.080Z,101141
2018-12-10T23:23:45.924Z,101144
2018-12-10T23:26:14.757Z,101152
2018-12-10T23:28:43.594Z,101154
2018-12-10T23:31:12.426Z,101142
2018-12-10T23:33:41.263Z,101152
2018-12-10T23:36:10.116Z,101146
2018-12-10T23:38:38.950Z,101142
2018-12-10T23:41:07.790Z,101149
2018-12-10T23:43:36.621Z,101159
2018-12-10T23:46:05.557Z,101146
2018-12-10T23:48:34.358Z,101148
2018-12-10T23:51:03.183Z,101149
2018-12-10T23:53:32.748Z,101146
2018-12-10T23:56:01.575Z,101151
2018-12-10T23:58:30.406Z,101158
